sensor_id;sensor_type;location;lat;lon;timestamp;P1;durP1;ratioP1;P2;durP2;ratioP2
12373;SDS011;6251;51.762;8.660;2023-05-01T01:07:52;3.35;;;3.00;;
12373;SDS011;6251;51.762;8.660;2023-05-01T02:49:49;3.67;;;3.37;;
12373;SDS011;6251;51.762;8.660;2023-05-01T02:59:51;4.95;;;3.60;;
12373;SDS011;6251;51.762;8.660;2023-05-01T04:00:44;3.97;;;3.60;;
12373;SDS011;6251;51.762;8.660;2023-05-01T04:10:44;4.22;;;3.35;;
12373;SDS011;6251;51.762;8.660;2023-05-01T04:20:45;6.62;;;3.85;;
12373;SDS011;6251;51.762;8.660;2023-05-01T04:30:45;4.55;;;3.60;;
12373;SDS011;6251;51.762;8.660;2023-05-01T04:40:46;4.20;;;3.30;;
12373;SDS011;6251;51.762;8.660;2023-05-01T04:50:47;3.87;;;3.42;;
12373;SDS011;6251;51.762;8.660;2023-05-01T05:00:47;4.68;;;3.25;;
12373;SDS011;6251;51.762;8.660;2023-05-01T05:10:48;5.18;;;3.12;;
12373;SDS011;6251;51.762;8.660;2023-05-01T05:20:49;3.28;;;3.00;;
12373;SDS011;6251;51.762;8.660;2023-05-01T05:30:49;3.45;;;3.15;;
12373;SDS011;6251;51.762;8.660;2023-05-01T05:40:50;3.65;;;3.20;;
12373;SDS011;6251;51.762;8.660;2023-05-01T05:50:53;3.12;;;2.90;;
12373;SDS011;6251;51.762;8.660;2023-05-01T06:00:53;3.78;;;2.58;;
12373;SDS011;6251;51.762;8.660;2023-05-01T06:10:57;3.60;;;3.10;;
12373;SDS011;6251;51.762;8.660;2023-05-01T06:20:58;4.95;;;2.75;;
12373;SDS011;6251;51.762;8.660;2023-05-01T06:30:59;4.18;;;2.95;;
12373;SDS011;6251;51.762;8.660;2023-05-01T06:40:59;3.65;;;2.85;;
12373;SDS011;6251;51.762;8.660;2023-05-01T06:51:00;3.40;;;2.83;;
12373;SDS011;6251;51.762;8.660;2023-05-01T07:01:00;3.35;;;3.05;;
12373;SDS011;6251;51.762;8.660;2023-05-01T07:11:01;5.82;;;2.90;;
12373;SDS011;6251;51.762;8.660;2023-05-01T07:21:02;3.55;;;2.70;;
12373;SDS011;6251;51.762;8.660;2023-05-01T07:31:02;2.75;;;2.55;;
12373;SDS011;6251;51.762;8.660;2023-05-01T07:41:03;4.10;;;2.53;;
12373;SDS011;6251;51.762;8.660;2023-05-01T07:51:04;3.45;;;2.75;;
12373;SDS011;6251;51.762;8.660;2023-05-01T08:01:05;3.05;;;2.75;;
12373;SDS011;6251;51.762;8.660;2023-05-01T08:11:06;3.00;;;2.67;;
12373;SDS011;6251;51.762;8.660;2023-05-01T08:21:07;3.22;;;2.85;;
12373;SDS011;6251;51.762;8.660;2023-05-01T08:31:07;3.95;;;2.60;;
12373;SDS011;6251;51.762;8.660;2023-05-01T08:41:08;2.72;;;2.40;;
12373;SDS011;6251;51.762;8.660;2023-05-01T08:51:13;3.08;;;2.50;;
12373;SDS011;6251;51.762;8.660;2023-05-01T09:01:16;3.35;;;2.40;;
12373;SDS011;6251;51.762;8.660;2023-05-01T09:11:20;3.20;;;2.55;;
12373;SDS011;6251;51.762;8.660;2023-05-01T09:21:22;2.62;;;2.50;;
12373;SDS011;6251;51.762;8.660;2023-05-01T09:31:25;4.85;;;2.83;;
12373;SDS011;6251;51.762;8.660;2023-05-01T09:41:31;2.62;;;2.42;;
12373;SDS011;6251;51.762;8.660;2023-05-01T09:51:33;2.55;;;2.35;;
12373;SDS011;6251;51.762;8.660;2023-05-01T10:01:37;2.15;;;1.92;;
12373;SDS011;6251;51.762;8.660;2023-05-01T10:11:49;2.35;;;2.15;;
12373;SDS011;6251;51.762;8.660;2023-05-01T10:21:54;1.77;;;1.67;;
12373;SDS011;6251;51.762;8.660;2023-05-01T10:31:55;1.50;;;1.50;;
12373;SDS011;6251;51.762;8.660;2023-05-01T11:01:57;1.75;;;1.65;;
12373;SDS011;6251;51.762;8.660;2023-05-01T11:11:58;1.50;;;1.40;;
12373;SDS011;6251;51.762;8.660;2023-05-01T11:21:58;1.55;;;1.35;;
12373;SDS011;6251;51.762;8.660;2023-05-01T11:31:59;1.15;;;1.15;;
12373;SDS011;6251;51.762;8.660;2023-05-01T11:42:07;1.85;;;1.50;;
12373;SDS011;6251;51.762;8.660;2023-05-01T11:52:09;1.45;;;1.40;;
12373;SDS011;6251;51.762;8.660;2023-05-01T12:02:16;1.70;;;1.57;;
12373;SDS011;6251;51.762;8.660;2023-05-01T12:12:19;1.27;;;1.27;;
12373;SDS011;6251;51.762;8.660;2023-05-01T12:22:19;1.60;;;1.48;;
12373;SDS011;6251;51.762;8.660;2023-05-01T12:32:27;1.12;;;1.12;;
12373;SDS011;6251;51.762;8.660;2023-05-01T12:42:30;1.30;;;1.30;;
12373;SDS011;6251;51.762;8.660;2023-05-01T12:52:31;1.27;;;1.27;;
12373;SDS011;6251;51.762;8.660;2023-05-01T13:02:32;1.50;;;1.40;;
12373;SDS011;6251;51.762;8.660;2023-05-01T13:12:33;1.58;;;1.30;;
12373;SDS011;6251;51.762;8.660;2023-05-01T13:22:43;1.10;;;1.10;;
12373;SDS011;6251;51.762;8.660;2023-05-01T13:32:45;1.08;;;1.08;;
12373;SDS011;6251;51.762;8.660;2023-05-01T13:42:50;1.55;;;1.20;;
12373;SDS011;6251;51.762;8.660;2023-05-01T13:52:51;1.52;;;1.10;;
12373;SDS011;6251;51.762;8.660;2023-05-01T14:02:52;1.20;;;1.20;;
12373;SDS011;6251;51.762;8.660;2023-05-01T14:12:56;1.10;;;1.10;;
12373;SDS011;6251;51.762;8.660;2023-05-01T14:22:58;1.37;;;1.37;;
12373;SDS011;6251;51.762;8.660;2023-05-01T14:33:02;2.15;;;1.40;;
12373;SDS011;6251;51.762;8.660;2023-05-01T14:43:05;1.08;;;1.08;;
12373;SDS011;6251;51.762;8.660;2023-05-01T14:53:07;0.88;;;0.88;;
12373;SDS011;6251;51.762;8.660;2023-05-01T15:03:07;1.20;;;1.20;;
12373;SDS011;6251;51.762;8.660;2023-05-01T15:13:08;1.92;;;1.83;;
12373;SDS011;6251;51.762;8.660;2023-05-01T15:23:09;1.95;;;0.90;;
12373;SDS011;6251;51.762;8.660;2023-05-01T15:33:09;0.85;;;0.85;;
12373;SDS011;6251;51.762;8.660;2023-05-01T15:43:10;0.90;;;0.90;;
12373;SDS011;6251;51.762;8.660;2023-05-01T15:53:10;0.93;;;0.93;;
12373;SDS011;6251;51.762;8.660;2023-05-01T16:03:11;1.52;;;1.42;;
12373;SDS011;6251;51.762;8.660;2023-05-01T16:13:12;1.27;;;1.20;;
12373;SDS011;6251;51.762;8.660;2023-05-01T16:23:13;1.02;;;1.02;;
12373;SDS011;6251;51.762;8.660;2023-05-01T16:33:15;1.48;;;1.10;;
12373;SDS011;6251;51.762;8.660;2023-05-01T16:43:19;2.35;;;1.50;;
12373;SDS011;6251;51.762;8.660;2023-05-01T16:53:21;0.95;;;0.95;;
12373;SDS011;6251;51.762;8.660;2023-05-01T17:03:22;2.00;;;1.90;;
12373;SDS011;6251;51.762;8.660;2023-05-01T17:13:23;1.50;;;1.40;;
12373;SDS011;6251;51.762;8.660;2023-05-01T17:23:24;1.60;;;1.50;;
12373;SDS011;6251;51.762;8.660;2023-05-01T17:33:28;1.37;;;1.37;;
12373;SDS011;6251;51.762;8.660;2023-05-01T17:43:30;1.50;;;1.48;;
12373;SDS011;6251;51.762;8.660;2023-05-01T17:53:30;1.75;;;1.73;;
12373;SDS011;6251;51.762;8.660;2023-05-01T18:03:31;2.00;;;1.90;;
12373;SDS011;6251;51.762;8.660;2023-05-01T18:13:32;2.33;;;1.87;;
12373;SDS011;6251;51.762;8.660;2023-05-01T18:23:37;3.25;;;2.95;;
12373;SDS011;6251;51.762;8.660;2023-05-01T18:33:38;2.47;;;2.15;;
12373;SDS011;6251;51.762;8.660;2023-05-01T18:43:38;2.33;;;2.23;;
12373;SDS011;6251;51.762;8.660;2023-05-01T18:53:39;2.83;;;2.62;;
12373;SDS011;6251;51.762;8.660;2023-05-01T19:03:40;3.10;;;2.90;;
12373;SDS011;6251;51.762;8.660;2023-05-01T19:13:40;3.33;;;2.90;;
12373;SDS011;6251;51.762;8.660;2023-05-01T19:23:41;2.92;;;2.72;;
12373;SDS011;6251;51.762;8.660;2023-05-01T19:33:42;3.50;;;3.30;;
12373;SDS011;6251;51.762;8.660;2023-05-01T19:43:42;3.37;;;3.17;;
12373;SDS011;6251;51.762;8.660;2023-05-01T19:53:43;2.60;;;2.45;;
12373;SDS011;6251;51.762;8.660;2023-05-01T20:03:44;2.90;;;2.70;;
12373;SDS011;6251;51.762;8.660;2023-05-01T20:13:44;2.47;;;2.37;;
12373;SDS011;6251;51.762;8.660;2023-05-01T20:23:45;2.58;;;2.47;;
12373;SDS011;6251;51.762;8.660;2023-05-01T20:33:45;3.10;;;3.00;;
12373;SDS011;6251;51.762;8.660;2023-05-01T20:43:46;3.15;;;2.95;;
12373;SDS011;6251;51.762;8.660;2023-05-01T20:53:47;3.40;;;3.20;;
